sensor_id;sensor_type;location;lat;lon;timestamp;P1;durP1;ratioP1;P2;durP2;ratioP2
46755;SDS011;32506;52.826;-1.192;2023-07-22T00:01:48;0.90;;;0.40;;
46755;SDS011;32506;52.826;-1.192;2023-07-22T00:04:14;1.77;;;0.68;;
46755;SDS011;32506;52.826;-1.192;2023-07-22T00:06:39;1.35;;;0.50;;
46755;SDS011;32506;52.826;-1.192;2023-07-22T00:09:05;2.55;;;0.52;;
46755;SDS011;32506;52.826;-1.192;2023-07-22T00:11:30;2.50;;;0.57;;
46755;SDS011;32506;52.826;-1.192;2023-07-22T00:13:56;1.48;;;0.63;;
46755;SDS011;32506;52.826;-1.192;2023-07-22T00:16:21;1.63;;;0.40;;
46755;SDS011;32506;52.826;-1.192;2023-07-22T00:18:47;1.52;;;0.50;;
46755;SDS011;32506;52.826;-1.192;2023-07-22T00:21:13;0.70;;;0.50;;
46755;SDS011;32506;52.826;-1.192;2023-07-22T00:23:39;1.25;;;0.52;;
46755;SDS011;32506;52.826;-1.192;2023-07-22T00:26:04;1.58;;;0.68;;
46755;SDS011;32506;52.826;-1.192;2023-07-22T00:28:30;2.55;;;0.65;;
46755;SDS011;32506;52.826;-1.192;2023-07-22T00:30:55;1.55;;;0.57;;
46755;SDS011;32506;52.826;-1.192;2023-07-22T00:33:22;2.35;;;0.50;;
46755;SDS011;32506;52.826;-1.192;2023-07-22T00:35:49;1.27;;;0.60;;
46755;SDS011;32506;52.826;-1.192;2023-07-22T00:38:17;1.45;;;0.60;;
46755;SDS011;32506;52.826;-1.192;2023-07-22T00:40:44;1.58;;;0.70;;
46755;SDS011;32506;52.826;-1.192;2023-07-22T00:43:10;0.90;;;0.50;;
46755;SDS011;32506;52.826;-1.192;2023-07-22T00:45:36;1.40;;;0.45;;
46755;SDS011;32506;52.826;-1.192;2023-07-22T00:48:02;1.58;;;0.57;;
46755;SDS011;32506;52.826;-1.192;2023-07-22T00:50:30;2.17;;;0.93;;
46755;SDS011;32506;52.826;-1.192;2023-07-22T00:52:56;1.42;;;0.70;;
46755;SDS011;32506;52.826;-1.192;2023-07-22T00:55:22;1.90;;;0.70;;
46755;SDS011;32506;52.826;-1.192;2023-07-22T00:57:48;1.90;;;0.68;;
46755;SDS011;32506;52.826;-1.192;2023-07-22T01:00:13;1.30;;;0.70;;
46755;SDS011;32506;52.826;-1.192;2023-07-22T01:02:41;1.10;;;0.57;;
46755;SDS011;32506;52.826;-1.192;2023-07-22T01:05:07;1.70;;;0.73;;
46755;SDS011;32506;52.826;-1.192;2023-07-22T01:07:35;1.95;;;0.68;;
46755;SDS011;32506;52.826;-1.192;2023-07-22T01:10:01;2.13;;;0.80;;
46755;SDS011;32506;52.826;-1.192;2023-07-22T01:12:28;1.15;;;0.70;;
46755;SDS011;32506;52.826;-1.192;2023-07-22T01:14:53;1.55;;;0.40;;
46755;SDS011;32506;52.826;-1.192;2023-07-22T01:17:19;2.45;;;0.60;;
46755;SDS011;32506;52.826;-1.192;2023-07-22T01:19:44;1.70;;;0.68;;
46755;SDS011;32506;52.826;-1.192;2023-07-22T01:22:11;1.67;;;0.50;;
46755;SDS011;32506;52.826;-1.192;2023-07-22T01:24:38;2.20;;;0.50;;
46755;SDS011;32506;52.826;-1.192;2023-07-22T01:27:07;2.33;;;0.52;;
46755;SDS011;32506;52.826;-1.192;2023-07-22T01:29:35;1.42;;;0.68;;
46755;SDS011;32506;52.826;-1.192;2023-07-22T01:32:00;1.83;;;0.70;;
46755;SDS011;32506;52.826;-1.192;2023-07-22T01:34:26;2.58;;;0.90;;
46755;SDS011;32506;52.826;-1.192;2023-07-22T01:36:51;0.93;;;0.47;;
46755;SDS011;32506;52.826;-1.192;2023-07-22T01:39:19;3.05;;;0.75;;
46755;SDS011;32506;52.826;-1.192;2023-07-22T01:41:44;3.38;;;0.70;;
46755;SDS011;32506;52.826;-1.192;2023-07-22T01:44:10;1.23;;;0.60;;
46755;SDS011;32506;52.826;-1.192;2023-07-22T01:46:36;1.05;;;0.75;;
46755;SDS011;32506;52.826;-1.192;2023-07-22T01:49:03;2.95;;;1.25;;
46755;SDS011;32506;52.826;-1.192;2023-07-22T01:51:30;1.65;;;0.80;;
46755;SDS011;32506;52.826;-1.192;2023-07-22T01:53:55;2.13;;;0.70;;
46755;SDS011;32506;52.826;-1.192;2023-07-22T01:56:22;3.97;;;0.80;;
46755;SDS011;32506;52.826;-1.192;2023-07-22T01:58:47;2.45;;;0.90;;
46755;SDS011;32506;52.826;-1.192;2023-07-22T02:01:13;2.55;;;0.80;;
46755;SDS011;32506;52.826;-1.192;2023-07-22T02:03:41;1.48;;;0.70;;
46755;SDS011;32506;52.826;-1.192;2023-07-22T02:06:07;1.05;;;0.60;;
46755;SDS011;32506;52.826;-1.192;2023-07-22T02:08:33;1.40;;;0.70;;
46755;SDS011;32506;52.826;-1.192;2023-07-22T02:11:02;3.30;;;0.90;;
46755;SDS011;32506;52.826;-1.192;2023-07-22T02:13:32;2.72;;;0.98;;
46755;SDS011;32506;52.826;-1.192;2023-07-22T02:15:59;3.53;;;0.93;;
46755;SDS011;32506;52.826;-1.192;2023-07-22T02:18:25;3.45;;;0.80;;
46755;SDS011;32506;52.826;-1.192;2023-07-22T02:20:52;1.88;;;0.90;;
46755;SDS011;32506;52.826;-1.192;2023-07-22T02:23:18;2.40;;;0.80;;
46755;SDS011;32506;52.826;-1.192;2023-07-22T02:25:43;2.72;;;0.90;;
46755;SDS011;32506;52.826;-1.192;2023-07-22T02:28:09;2.10;;;1.02;;
46755;SDS011;32506;52.826;-1.192;2023-07-22T02:30:35;1.98;;;0.80;;
46755;SDS011;32506;52.826;-1.192;2023-07-22T02:33:02;2.90;;;0.90;;
46755;SDS011;32506;52.826;-1.192;2023-07-22T02:35:28;2.97;;;1.10;;
46755;SDS011;32506;52.826;-1.192;2023-07-22T02:37:54;3.20;;;0.80;;
46755;SDS011;32506;52.826;-1.192;2023-07-22T02:40:19;1.67;;;0.90;;
46755;SDS011;32506;52.826;-1.192;2023-07-22T02:42:45;3.47;;;0.80;;
46755;SDS011;32506;52.826;-1.192;2023-07-22T02:45:10;1.95;;;0.65;;
46755;SDS011;32506;52.826;-1.192;2023-07-22T02:47:37;3.20;;;0.82;;
46755;SDS011;32506;52.826;-1.192;2023-07-22T02:50:03;2.70;;;1.00;;
46755;SDS011;32506;52.826;-1.192;2023-07-22T02:52:30;2.83;;;0.98;;
46755;SDS011;32506;52.826;-1.192;2023-07-22T02:55:05;2.65;;;0.80;;
46755;SDS011;32506;52.826;-1.192;2023-07-22T02:57:32;1.65;;;0.80;;
46755;SDS011;32506;52.826;-1.192;2023-07-22T02:59:58;1.90;;;0.80;;
46755;SDS011;32506;52.826;-1.192;2023-07-22T03:02:24;2.05;;;0.85;;
46755;SDS011;32506;52.826;-1.192;2023-07-22T03:04:49;2.22;;;0.90;;
46755;SDS011;32506;52.826;-1.192;2023-07-22T03:07:15;2.22;;;1.10;;
46755;SDS011;32506;52.826;-1.192;2023-07-22T03:09:40;2.30;;;1.02;;
46755;SDS011;32506;52.826;-1.192;2023-07-22T03:12:06;2.65;;;0.73;;
46755;SDS011;32506;52.826;-1.192;2023-07-22T03:14:32;2.38;;;0.90;;
46755;SDS011;32506;52.826;-1.192;2023-07-22T03:17:01;2.30;;;0.90;;
46755;SDS011;32506;52.826;-1.192;2023-07-22T03:19:28;2.38;;;1.02;;
46755;SDS011;32506;52.826;-1.192;2023-07-22T03:21:54;1.85;;;1.00;;
46755;SDS011;32506;52.826;-1.192;2023-07-22T03:24:19;2.10;;;0.80;;
46755;SDS011;32506;52.826;-1.192;2023-07-22T03:26:45;2.90;;;0.82;;
46755;SDS011;32506;52.826;-1.192;2023-07-22T03:29:10;2.47;;;1.10;;
46755;SDS011;32506;52.826;-1.192;2023-07-22T03:31:36;2.22;;;0.93;;
46755;SDS011;32506;52.826;-1.192;2023-07-22T03:34:01;1.92;;;0.98;;
46755;SDS011;32506;52.826;-1.192;2023-07-22T03:36:27;4.38;;;1.20;;
46755;SDS011;32506;52.826;-1.192;2023-07-22T03:38:53;3.38;;;1.65;;
46755;SDS011;32506;52.826;-1.192;2023-07-22T03:41:18;2.55;;;1.10;;
46755;SDS011;32506;52.826;-1.192;2023-07-22T03:43:44;2.80;;;1.10;;
46755;SDS011;32506;52.826;-1.192;2023-07-22T03:46:09;2.85;;;0.90;;
46755;SDS011;32506;52.826;-1.192;2023-07-22T03:48:35;1.83;;;0.90;;
46755;SDS011;32506;52.826;-1.192;2023-07-22T03:51:00;2.47;;;1.02;;
46755;SDS011;32506;52.826;-1.192;2023-07-22T03:53:26;4.15;;;1.27;;
46755;SDS011;32506;52.826;-1.192;2023-07-22T03:55:51;2.40;;;0.95;;
46755;SDS011;32506;52.826;-1.192;2023-07-22T03:58:17;2.65;;;1.30;;
46755;SDS011;32506;52.826;-1.192;2023-07-22T04:00:42;3.83;;;1.30;;
46755;SDS011;32506;52.826;-1.192;2023-07-22T04:03:08;1.35;;;0.82;;
46755;SDS011;32506;52.826;-1.192;2023-07-22T04:05:33;4.10;;;1.40;;
46755;SDS011;32506;52.826;-1.192;2023-07-22T04:07:59;2.58;;;1.02;;
46755;SDS011;32506;52.826;-1.192;2023-07-22T04:10:24;2.30;;;1.00;;
46755;SDS011;32506;52.826;-1.192;2023-07-22T04:12:49;1.90;;;1.00;;
46755;SDS011;32506;52.826;-1.192;2023-07-22T04:15:15;3.80;;;1.33;;
46755;SDS011;32506;52.826;-1.192;2023-07-22T04:17:42;3.50;;;1.35;;
46755;SDS011;32506;52.826;-1.192;2023-07-22T04:20:07;8.60;;;1.30;;
46755;SDS011;32506;52.826;-1.192;2023-07-22T04:22:34;3.45;;;1.65;;
46755;SDS011;32506;52.826;-1.192;2023-07-22T04:24:59;3.63;;;1.20;;
46755;SDS011;32506;52.826;-1.192;2023-07-22T04:27:26;4.25;;;1.20;;
46755;SDS011;32506;52.826;-1.192;2023-07-22T04:29:52;3.28;;;1.40;;
46755;SDS011;32506;52.826;-1.192;2023-07-22T04:32:18;2.70;;;1.20;;
46755;SDS011;32506;52.826;-1.192;2023-07-22T04:34:43;3.10;;;1.42;;
46755;SDS011;32506;52.826;-1.192;2023-07-22T04:37:09;4.10;;;1.42;;
46755;SDS011;32506;52.826;-1.192;2023-07-22T04:39:34;2.95;;;1.42;;
46755;SDS011;32506;52.826;-1.192;2023-07-22T04:42:00;3.65;;;1.48;;
46755;SDS011;32506;52.826;-1.192;2023-07-22T04:44:26;3.97;;;1.60;;
46755;SDS011;32506;52.826;-1.192;2023-07-22T04:46:52;2.70;;;1.50;;
46755;SDS011;32506;52.826;-1.192;2023-07-22T04:49:17;4.13;;;1.63;;
46755;SDS011;32506;52.826;-1.192;2023-07-22T04:51:44;3.08;;;1.60;;
46755;SDS011;32506;52.826;-1.192;2023-07-22T04:54:13;3.30;;;1.40;;
46755;SDS011;32506;52.826;-1.192;2023-07-22T04:56:39;4.30;;;2.05;;
46755;SDS011;32506;52.826;-1.192;2023-07-22T04:59:05;4.13;;;1.90;;
46755;SDS011;32506;52.826;-1.192;2023-07-22T05:01:31;4.82;;;1.88;;
46755;SDS011;32506;52.826;-1.192;2023-07-22T05:03:57;6.43;;;2.58;;
46755;SDS011;32506;52.826;-1.192;2023-07-22T05:06:22;4.07;;;2.50;;
46755;SDS011;32506;52.826;-1.192;2023-07-22T05:08:49;5.03;;;2.58;;
46755;SDS011;32506;52.826;-1.192;2023-07-22T05:11:14;5.10;;;2.63;;
46755;SDS011;32506;52.826;-1.192;2023-07-22T05:13:39;4.63;;;2.80;;
46755;SDS011;32506;52.826;-1.192;2023-07-22T05:16:05;4.55;;;2.92;;
46755;SDS011;32506;52.826;-1.192;2023-07-22T05:18:30;5.80;;;3.45;;
46755;SDS011;32506;52.826;-1.192;2023-07-22T05:20:56;5.05;;;3.72;;
46755;SDS011;32506;52.826;-1.192;2023-07-22T05:23:21;6.43;;;3.40;;
46755;SDS011;32506;52.826;-1.192;2023-07-22T05:25:52;6.38;;;3.50;;
46755;SDS011;32506;52.826;-1.192;2023-07-22T05:28:18;5.43;;;3.38;;
46755;SDS011;32506;52.826;-1.192;2023-07-22T05:30:44;5.50;;;3.10;;
46755;SDS011;32506;52.826;-1.192;2023-07-22T05:33:09;4.53;;;3.03;;
46755;SDS011;32506;52.826;-1.192;2023-07-22T05:35:35;5.90;;;2.83;;
46755;SDS011;32506;52.826;-1.192;2023-07-22T05:38:00;6.22;;;2.80;;
46755;SDS011;32506;52.826;-1.192;2023-07-22T05:40:29;5.97;;;2.65;;
46755;SDS011;32506;52.826;-1.192;2023-07-22T05:42:54;5.00;;;2.42;;
46755;SDS011;32506;52.826;-1.192;2023-07-22T05:45:19;7.30;;;2.55;;
46755;SDS011;32506;52.826;-1.192;2023-07-22T05:47:45;3.90;;;2.00;;
46755;SDS011;32506;52.826;-1.192;2023-07-22T05:50:10;3.47;;;2.28;;
46755;SDS011;32506;52.826;-1.192;2023-07-22T05:52:36;3.92;;;2.25;;
46755;SDS011;32506;52.826;-1.192;2023-07-22T05:55:01;3.25;;;2.05;;
46755;SDS011;32506;52.826;-1.192;2023-07-22T05:57:27;6.72;;;2.33;;
46755;SDS011;32506;52.826;-1.192;2023-07-22T05:59:52;6.38;;;2.00;;
46755;SDS011;32506;52.826;-1.192;2023-07-22T06:02:18;5.00;;;2.45;;
46755;SDS011;32506;52.826;-1.192;2023-07-22T06:04:43;5.57;;;2.30;;
46755;SDS011;32506;52.826;-1.192;2023-07-22T06:07:09;3.70;;;1.95;;
46755;SDS011;32506;52.826;-1.192;2023-07-22T06:09:34;6.38;;;2.30;;
46755;SDS011;32506;52.826;-1.192;2023-07-22T06:12:00;3.70;;;2.10;;
46755;SDS011;32506;52.826;-1.192;2023-07-22T06:14:26;5.90;;;1.98;;
46755;SDS011;32506;52.826;-1.192;2023-07-22T06:16:52;4.40;;;2.30;;
46755;SDS011;32506;52.826;-1.192;2023-07-22T06:19:18;5.78;;;1.98;;
46755;SDS011;32506;52.826;-1.192;2023-07-22T06:21:43;5.40;;;1.98;;
46755;SDS011;32506;52.826;-1.192;2023-07-22T06:24:09;5.40;;;2.60;;
46755;SDS011;32506;52.826;-1.192;2023-07-22T06:26:35;5.30;;;2.13;;
46755;SDS011;32506;52.826;-1.192;2023-07-22T06:29:00;4.97;;;2.08;;
46755;SDS011;32506;52.826;-1.192;2023-07-22T06:31:26;5.80;;;2.40;;
46755;SDS011;32506;52.826;-1.192;2023-07-22T06:33:56;5.30;;;2.60;;
46755;SDS011;32506;52.826;-1.192;2023-07-22T06:36:22;5.32;;;2.40;;
46755;SDS011;32506;52.826;-1.192;2023-07-22T06:38:47;4.40;;;2.63;;
46755;SDS011;32506;52.826;-1.192;2023-07-22T06:41:13;6.82;;;2.50;;
46755;SDS011;32506;52.826;-1.192;2023-07-22T06:43:39;8.23;;;2.63;;
46755;SDS011;32506;52.826;-1.192;2023-07-22T06:46:05;5.53;;;2.50;;
46755;SDS011;32506;52.826;-1.192;2023-07-22T06:48:30;4.68;;;2.42;;
46755;SDS011;32506;52.826;-1.192;2023-07-22T06:50:56;7.82;;;2.75;;
46755;SDS011;32506;52.826;-1.192;2023-07-22T06:53:21;6.18;;;2.65;;
46755;SDS011;32506;52.826;-1.192;2023-07-22T06:55:50;5.93;;;2.60;;
46755;SDS011;32506;52.826;-1.192;2023-07-22T06:58:16;6.50;;;2.75;;
46755;SDS011;32506;52.826;-1.192;2023-07-22T07:00:42;9.45;;;2.72;;
46755;SDS011;32506;52.826;-1.192;2023-07-22T07:03:07;4.93;;;2.60;;
46755;SDS011;32506;52.826;-1.192;2023-07-22T07:05:33;8.18;;;3.20;;
46755;SDS011;32506;52.826;-1.192;2023-07-22T07:07:59;7.35;;;2.90;;
46755;SDS011;32506;52.826;-1.192;2023-07-22T07:10:25;5.80;;;3.00;;
46755;SDS011;32506;52.826;-1.192;2023-07-22T07:12:51;6.18;;;2.70;;
46755;SDS011;32506;52.826;-1.192;2023-07-22T07:15:16;9.05;;;3.53;;
46755;SDS011;32506;52.826;-1.192;2023-07-22T07:17:41;8.65;;;3.40;;
46755;SDS011;32506;52.826;-1.192;2023-07-22T07:20:07;6.72;;;3.50;;
46755;SDS011;32506;52.826;-1.192;2023-07-22T07:22:33;6.88;;;3.05;;
46755;SDS011;32506;52.826;-1.192;2023-07-22T07:24:58;6.22;;;3.40;;
46755;SDS011;32506;52.826;-1.192;2023-07-22T07:27:24;6.15;;;3.15;;
46755;SDS011;32506;52.826;-1.192;2023-07-22T07:29:49;6.57;;;3.50;;
46755;SDS011;32506;52.826;-1.192;2023-07-22T07:32:15;9.43;;;4.10;;
46755;SDS011;32506;52.826;-1.192;2023-07-22T07:34:40;8.93;;;3.72;;
46755;SDS011;32506;52.826;-1.192;2023-07-22T07:37:05;7.50;;;3.47;;
46755;SDS011;32506;52.826;-1.192;2023-07-22T07:39:31;5.45;;;3.95;;
46755;SDS011;32506;52.826;-1.192;2023-07-22T07:41:56;7.03;;;4.00;;
46755;SDS011;32506;52.826;-1.192;2023-07-22T07:44:22;7.68;;;3.42;;
46755;SDS011;32506;52.826;-1.192;2023-07-22T07:46:47;8.82;;;3.88;;
46755;SDS011;32506;52.826;-1.192;2023-07-22T07:49:13;6.53;;;4.18;;
46755;SDS011;32506;52.826;-1.192;2023-07-22T07:51:39;5.80;;;3.83;;
46755;SDS011;32506;52.826;-1.192;2023-07-22T07:54:07;7.68;;;4.20;;
46755;SDS011;32506;52.826;-1.192;2023-07-22T07:56:33;7.55;;;4.53;;
46755;SDS011;32506;52.826;-1.192;2023-07-22T07:58:58;9.45;;;4.55;;
46755;SDS011;32506;52.826;-1.192;2023-07-22T08:01:24;10.20;;;4.68;;
46755;SDS011;32506;52.826;-1.192;2023-07-22T08:03:49;8.75;;;4.82;;
46755;SDS011;32506;52.826;-1.192;2023-07-22T08:06:15;7.05;;;4.07;;
46755;SDS011;32506;52.826;-1.192;2023-07-22T08:08:41;6.75;;;4.43;;
46755;SDS011;32506;52.826;-1.192;2023-07-22T08:11:10;10.23;;;4.72;;
46755;SDS011;32506;52.826;-1.192;2023-07-22T08:13:38;6.95;;;4.50;;
46755;SDS011;32506;52.826;-1.192;2023-07-22T08:16:05;7.85;;;4.95;;
46755;SDS011;32506;52.826;-1.192;2023-07-22T08:18:32;8.75;;;4.90;;
46755;SDS011;32506;52.826;-1.192;2023-07-22T08:20:58;8.40;;;3.95;;
46755;SDS011;32506;52.826;-1.192;2023-07-22T08:23:24;7.97;;;4.00;;
46755;SDS011;32506;52.826;-1.192;2023-07-22T08:25:50;6.40;;;4.20;;
46755;SDS011;32506;52.826;-1.192;2023-07-22T08:28:16;6.03;;;3.85;;
46755;SDS011;32506;52.826;-1.192;2023-07-22T08:30:41;7.68;;;4.03;;
46755;SDS011;32506;52.826;-1.192;2023-07-22T08:33:08;7.45;;;3.63;;
46755;SDS011;32506;52.826;-1.192;2023-07-22T08:35:35;6.72;;;3.72;;
46755;SDS011;32506;52.826;-1.192;2023-07-22T08:38:01;6.80;;;3.97;;
46755;SDS011;32506;52.826;-1.192;2023-07-22T08:40:27;7.43;;;3.72;;
46755;SDS011;32506;52.826;-1.192;2023-07-22T08:42:58;5.43;;;3.63;;
46755;SDS011;32506;52.826;-1.192;2023-07-22T08:45:25;5.18;;;3.70;;
46755;SDS011;32506;52.826;-1.192;2023-07-22T08:47:54;6.68;;;3.40;;
46755;SDS011;32506;52.826;-1.192;2023-07-22T08:50:24;5.28;;;3.15;;
46755;SDS011;32506;52.826;-1.192;2023-07-22T08:52:54;4.90;;;3.00;;
46755;SDS011;32506;52.826;-1.192;2023-07-22T08:55:19;5.60;;;3.60;;
46755;SDS011;32506;52.826;-1.192;2023-07-22T08:57:45;8.38;;;3.60;;
46755;SDS011;32506;52.826;-1.192;2023-07-22T09:00:13;5.07;;;3.13;;
46755;SDS011;32506;52.826;-1.192;2023-07-22T09:02:39;5.47;;;3.50;;
46755;SDS011;32506;52.826;-1.192;2023-07-22T09:05:08;5.60;;;3.20;;
46755;SDS011;32506;52.826;-1.192;2023-07-22T09:07:34;5.95;;;2.97;;
46755;SDS011;32506;52.826;-1.192;2023-07-22T09:10:01;4.68;;;2.38;;
46755;SDS011;32506;52.826;-1.192;2023-07-22T09:12:27;4.72;;;2.95;;
46755;SDS011;32506;52.826;-1.192;2023-07-22T09:14:53;7.65;;;3.13;;
46755;SDS011;32506;52.826;-1.192;2023-07-22T09:17:19;5.47;;;2.20;;
46755;SDS011;32506;52.826;-1.192;2023-07-22T09:19:44;3.60;;;2.75;;
46755;SDS011;32506;52.826;-1.192;2023-07-22T09:22:10;3.67;;;2.40;;
46755;SDS011;32506;52.826;-1.192;2023-07-22T09:24:35;3.83;;;2.40;;
46755;SDS011;32506;52.826;-1.192;2023-07-22T09:27:00;4.45;;;2.55;;
46755;SDS011;32506;52.826;-1.192;2023-07-22T09:29:33;4.65;;;2.60;;
46755;SDS011;32506;52.826;-1.192;2023-07-22T09:32:00;4.22;;;2.67;;
46755;SDS011;32506;52.826;-1.192;2023-07-22T09:34:25;4.13;;;2.50;;
46755;SDS011;32506;52.826;-1.192;2023-07-22T09:36:58;4.45;;;2.30;;
46755;SDS011;32506;52.826;-1.192;2023-07-22T09:39:28;4.10;;;2.10;;
46755;SDS011;32506;52.826;-1.192;2023-07-22T09:41:54;4.03;;;2.42;;
46755;SDS011;32506;52.826;-1.192;2023-07-22T09:44:20;3.65;;;2.28;;
46755;SDS011;32506;52.826;-1.192;2023-07-22T09:46:47;3.78;;;1.88;;
46755;SDS011;32506;52.826;-1.192;2023-07-22T09:49:15;3.53;;;2.03;;
46755;SDS011;32506;52.826;-1.192;2023-07-22T09:51:42;3.67;;;1.75;;
46755;SDS011;32506;52.826;-1.192;2023-07-22T09:54:08;3.40;;;2.10;;
46755;SDS011;32506;52.826;-1.192;2023-07-22T09:56:44;4.28;;;1.95;;
46755;SDS011;32506;52.826;-1.192;2023-07-22T09:59:10;4.28;;;2.40;;
46755;SDS011;32506;52.826;-1.192;2023-07-22T10:01:40;2.78;;;1.67;;
46755;SDS011;32506;52.826;-1.192;2023-07-22T10:04:06;3.28;;;1.63;;
46755;SDS011;32506;52.826;-1.192;2023-07-22T10:06:33;4.22;;;1.98;;
46755;SDS011;32506;52.826;-1.192;2023-07-22T10:09:03;3.10;;;1.90;;
46755;SDS011;32506;52.826;-1.192;2023-07-22T10:11:33;4.35;;;2.05;;
46755;SDS011;32506;52.826;-1.192;2023-07-22T10:14:00;3.65;;;2.15;;
46755;SDS011;32506;52.826;-1.192;2023-07-22T10:16:27;4.15;;;1.60;;
46755;SDS011;32506;52.826;-1.192;2023-07-22T10:18:53;2.75;;;1.70;;
46755;SDS011;32506;52.826;-1.192;2023-07-22T10:21:19;3.15;;;1.75;;
46755;SDS011;32506;52.826;-1.192;2023-07-22T10:23:46;3.03;;;1.85;;
46755;SDS011;32506;52.826;-1.192;2023-07-22T10:26:14;2.50;;;1.75;;
46755;SDS011;32506;52.826;-1.192;2023-07-22T10:28:41;2.92;;;1.98;;
46755;SDS011;32506;52.826;-1.192;2023-07-22T10:31:08;3.67;;;2.03;;
46755;SDS011;32506;52.826;-1.192;2023-07-22T10:33:34;3.42;;;2.05;;
46755;SDS011;32506;52.826;-1.192;2023-07-22T10:36:07;3.00;;;1.92;;
46755;SDS011;32506;52.826;-1.192;2023-07-22T10:38:34;3.72;;;2.28;;
46755;SDS011;32506;52.826;-1.192;2023-07-22T10:41:01;4.05;;;2.00;;
46755;SDS011;32506;52.826;-1.192;2023-07-22T10:43:37;3.42;;;1.92;;
46755;SDS011;32506;52.826;-1.192;2023-07-22T10:46:09;4.03;;;2.10;;
46755;SDS011;32506;52.826;-1.192;2023-07-22T10:48:38;3.97;;;2.15;;
46755;SDS011;32506;52.826;-1.192;2023-07-22T10:51:05;3.85;;;2.50;;
46755;SDS011;32506;52.826;-1.192;2023-07-22T10:53:44;5.70;;;2.58;;
46755;SDS011;32506;52.826;-1.192;2023-07-22T10:56:13;4.72;;;3.08;;
46755;SDS011;32506;52.826;-1.192;2023-07-22T11:12:00;5.50;;;2.90;;
46755;SDS011;32506;52.826;-1.192;2023-07-22T11:14:31;4.25;;;2.58;;
46755;SDS011;32506;52.826;-1.192;2023-07-22T11:17:02;4.32;;;2.58;;
46755;SDS011;32506;52.826;-1.192;2023-07-22T11:19:29;4.57;;;2.90;;
46755;SDS011;32506;52.826;-1.192;2023-07-22T11:21:55;4.75;;;2.72;;
46755;SDS011;32506;52.826;-1.192;2023-07-22T11:24:21;5.20;;;2.95;;
46755;SDS011;32506;52.826;-1.192;2023-07-22T11:26:48;5.05;;;2.67;;
46755;SDS011;32506;52.826;-1.192;2023-07-22T11:29:14;4.15;;;2.45;;
46755;SDS011;32506;52.826;-1.192;2023-07-22T11:31:44;5.90;;;3.20;;
46755;SDS011;32506;52.826;-1.192;2023-07-22T11:34:16;7.32;;;3.25;;
46755;SDS011;32506;52.826;-1.192;2023-07-22T11:36:44;4.45;;;2.40;;
46755;SDS011;32506;52.826;-1.192;2023-07-22T11:39:14;4.07;;;2.42;;
46755;SDS011;32506;52.826;-1.192;2023-07-22T11:41:41;4.47;;;3.00;;
46755;SDS011;32506;52.826;-1.192;2023-07-22T11:44:08;3.75;;;2.35;;
46755;SDS011;32506;52.826;-1.192;2023-07-22T11:46:48;3.70;;;2.30;;
46755;SDS011;32506;52.826;-1.192;2023-07-22T11:49:21;4.00;;;2.22;;
46755;SDS011;32506;52.826;-1.192;2023-07-22T11:51:58;4.40;;;2.80;;
46755;SDS011;32506;52.826;-1.192;2023-07-22T11:54:35;5.07;;;2.50;;
46755;SDS011;32506;52.826;-1.192;2023-07-22T11:57:16;4.05;;;2.10;;
46755;SDS011;32506;52.826;-1.192;2023-07-22T11:59:52;4.43;;;2.20;;
46755;SDS011;32506;52.826;-1.192;2023-07-22T12:02:20;3.58;;;2.05;;
46755;SDS011;32506;52.826;-1.192;2023-07-22T12:04:51;4.10;;;2.38;;
46755;SDS011;32506;52.826;-1.192;2023-07-22T12:07:28;3.50;;;2.30;;
46755;SDS011;32506;52.826;-1.192;2023-07-22T12:09:55;3.63;;;2.28;;
46755;SDS011;32506;52.826;-1.192;2023-07-22T12:12:34;3.67;;;2.15;;
46755;SDS011;32506;52.826;-1.192;2023-07-22T12:15:11;3.08;;;1.80;;
46755;SDS011;32506;52.826;-1.192;2023-07-22T12:17:59;4.13;;;1.88;;
46755;SDS011;32506;52.826;-1.192;2023-07-22T12:22:53;5.47;;;1.95;;
46755;SDS011;32506;52.826;-1.192;2023-07-22T12:25:19;2.97;;;2.08;;
46755;SDS011;32506;52.826;-1.192;2023-07-22T12:27:45;2.63;;;1.75;;
46755;SDS011;32506;52.826;-1.192;2023-07-22T12:30:10;3.45;;;2.28;;
46755;SDS011;32506;52.826;-1.192;2023-07-22T12:32:36;3.92;;;2.08;;
46755;SDS011;32506;52.826;-1.192;2023-07-22T12:35:02;3.63;;;2.20;;
46755;SDS011;32506;52.826;-1.192;2023-07-22T12:37:28;5.03;;;2.15;;
46755;SDS011;32506;52.826;-1.192;2023-07-22T12:39:54;4.13;;;2.30;;
46755;SDS011;32506;52.826;-1.192;2023-07-22T12:42:19;3.88;;;2.75;;
46755;SDS011;32506;52.826;-1.192;2023-07-22T12:44:45;3.97;;;2.47;;
46755;SDS011;32506;52.826;-1.192;2023-07-22T12:47:11;3.05;;;1.75;;
46755;SDS011;32506;52.826;-1.192;2023-07-22T12:49:36;4.00;;;2.40;;
46755;SDS011;32506;52.826;-1.192;2023-07-22T12:52:02;4.97;;;2.40;;
46755;SDS011;32506;52.826;-1.192;2023-07-22T12:54:32;3.35;;;2.20;;
46755;SDS011;32506;52.826;-1.192;2023-07-22T12:56:57;3.70;;;1.70;;
46755;SDS011;32506;52.826;-1.192;2023-07-22T12:59:23;2.28;;;1.55;;
46755;SDS011;32506;52.826;-1.192;2023-07-22T13:01:48;3.22;;;1.75;;
46755;SDS011;32506;52.826;-1.192;2023-07-22T13:04:14;2.83;;;1.80;;
46755;SDS011;32506;52.826;-1.192;2023-07-22T13:06:39;3.78;;;1.42;;
46755;SDS011;32506;52.826;-1.192;2023-07-22T13:09:05;2.63;;;1.52;;
46755;SDS011;32506;52.826;-1.192;2023-07-22T13:11:30;3.78;;;1.35;;
46755;SDS011;32506;52.826;-1.192;2023-07-22T13:13:56;2.60;;;1.40;;
46755;SDS011;32506;52.826;-1.192;2023-07-22T13:16:21;2.38;;;1.42;;
46755;SDS011;32506;52.826;-1.192;2023-07-22T13:18:46;1.95;;;1.27;;
46755;SDS011;32506;52.826;-1.192;2023-07-22T13:21:12;3.25;;;1.30;;
46755;SDS011;32506;52.826;-1.192;2023-07-22T13:23:37;2.53;;;1.40;;
46755;SDS011;32506;52.826;-1.192;2023-07-22T13:26:03;2.67;;;1.45;;
46755;SDS011;32506;52.826;-1.192;2023-07-22T13:28:28;3.65;;;1.58;;
46755;SDS011;32506;52.826;-1.192;2023-07-22T13:30:53;2.30;;;1.45;;
46755;SDS011;32506;52.826;-1.192;2023-07-22T13:33:19;2.38;;;1.20;;
46755;SDS011;32506;52.826;-1.192;2023-07-22T13:35:44;3.33;;;2.28;;
46755;SDS011;32506;52.826;-1.192;2023-07-22T13:38:10;3.10;;;1.50;;
46755;SDS011;32506;52.826;-1.192;2023-07-22T13:40:35;4.22;;;1.33;;
46755;SDS011;32506;52.826;-1.192;2023-07-22T13:43:01;2.00;;;1.30;;
46755;SDS011;32506;52.826;-1.192;2023-07-22T13:45:26;3.63;;;1.10;;
46755;SDS011;32506;52.826;-1.192;2023-07-22T13:47:52;2.10;;;1.20;;
46755;SDS011;32506;52.826;-1.192;2023-07-22T13:50:18;2.08;;;1.35;;
46755;SDS011;32506;52.826;-1.192;2023-07-22T13:52:43;2.25;;;1.48;;
46755;SDS011;32506;52.826;-1.192;2023-07-22T13:55:09;2.25;;;1.27;;
46755;SDS011;32506;52.826;-1.192;2023-07-22T13:57:35;2.45;;;1.10;;
46755;SDS011;32506;52.826;-1.192;2023-07-22T14:00:01;1.52;;;0.95;;
46755;SDS011;32506;52.826;-1.192;2023-07-22T14:02:26;2.38;;;1.30;;
46755;SDS011;32506;52.826;-1.192;2023-07-22T14:04:52;1.90;;;1.10;;
46755;SDS011;32506;52.826;-1.192;2023-07-22T14:07:17;2.05;;;1.35;;
46755;SDS011;32506;52.826;-1.192;2023-07-22T14:09:43;1.63;;;1.20;;
46755;SDS011;32506;52.826;-1.192;2023-07-22T14:12:09;2.33;;;1.05;;
46755;SDS011;32506;52.826;-1.192;2023-07-22T14:14:34;1.70;;;0.93;;
46755;SDS011;32506;52.826;-1.192;2023-07-22T14:17:00;2.38;;;1.20;;
46755;SDS011;32506;52.826;-1.192;2023-07-22T14:19:25;2.20;;;0.90;;
46755;SDS011;32506;52.826;-1.192;2023-07-22T14:21:51;1.83;;;1.00;;
46755;SDS011;32506;52.826;-1.192;2023-07-22T14:24:16;1.83;;;1.10;;
46755;SDS011;32506;52.826;-1.192;2023-07-22T14:26:42;2.20;;;1.08;;
46755;SDS011;32506;52.826;-1.192;2023-07-22T14:29:07;2.00;;;0.90;;
46755;SDS011;32506;52.826;-1.192;2023-07-22T14:31:33;1.80;;;0.98;;
46755;SDS011;32506;52.826;-1.192;2023-07-22T14:33:58;1.83;;;0.88;;
46755;SDS011;32506;52.826;-1.192;2023-07-22T14:36:24;1.60;;;1.08;;
46755;SDS011;32506;52.826;-1.192;2023-07-22T14:38:49;1.95;;;1.05;;
46755;SDS011;32506;52.826;-1.192;2023-07-22T14:41:15;2.28;;;1.13;;
46755;SDS011;32506;52.826;-1.192;2023-07-22T14:43:41;3.42;;;1.10;;
46755;SDS011;32506;52.826;-1.192;2023-07-22T14:46:06;1.90;;;1.20;;